createdAt,value
2023-03-03T00:01:45.693Z,100157.47
2023-03-03T00:04:13.348Z,100154.28
2023-03-03T00:06:41.002Z,100145.63
2023-03-03T00:09:09.991Z,100157.25
2023-03-03T00:11:37.670Z,100148.97
2023-03-03T00:14:19.598Z,100150.88
2023-03-03T00:16:49.120Z,100157.84
2023-03-03T00:19:20.261Z,100168.06
2023-03-03T00:21:49.821Z,100170.56
2023-03-03T00:24:24.039Z,100162.47
2023-03-03T00:26:55.415Z,100178.84
2023-03-03T00:29:36.613Z,100173.25
2023-03-03T00:32:19.387Z,100171.50
2023-03-03T00:34:47.858Z,100167.16
2023-03-03T00:37:26.608Z,100174.78
2023-03-03T00:40:03.549Z,100176.81
2023-03-03T00:42:35.504Z,100175.03
2023-03-03T00:45:03.937Z,100173.91
2023-03-03T00:47:32.765Z,100177.88
2023-03-03T00:50:27.140Z,100170.66
2023-03-03T00:53:01.849Z,100183.59
2023-03-03T00:55:31.957Z,100184.19
2023-03-03T00:57:59.778Z,100184.69
2023-03-03T01:00:34.188Z,100183.38
2023-03-03T01:03:05.362Z,100181.66
2023-03-03T01:05:33.675Z,100169.53
2023-03-03T01:08:01.835Z,100182.47
2023-03-03T01:10:33.594Z,100188.00
2023-03-03T01:13:01.344Z,100185.78
2023-03-03T01:15:29.226Z,100184.06
2023-03-03T01:17:57.172Z,100185.97
2023-03-03T01:20:25.029Z,100184.50
2023-03-03T01:22:52.811Z,100181.59
2023-03-03T01:25:20.490Z,100188.41
2023-03-03T01:27:49.515Z,100190.63
2023-03-03T01:30:17.567Z,100192.53
2023-03-03T01:32:45.304Z,100186.00
2023-03-03T01:35:13.169Z,100185.50
2023-03-03T01:37:41.205Z,100176.53
2023-03-03T01:40:15.690Z,100192.47
2023-03-03T01:42:43.500Z,100187.56
2023-03-03T01:45:17.016Z,100180.94
2023-03-03T01:47:49.722Z,100185.16
2023-03-03T01:50:27.608Z,100182.44
2023-03-03T01:52:56.005Z,100186.06
2023-03-03T01:55:27.024Z,100175.22
2023-03-03T01:57:59.687Z,100172.03
2023-03-03T02:00:29.741Z,100170.84
2023-03-03T02:02:57.757Z,100170.03
2023-03-03T02:05:26.025Z,100170.75
2023-03-03T02:07:54.328Z,100158.59
2023-03-03T02:10:22.876Z,100158.09
2023-03-03T02:12:52.777Z,100151.38
2023-03-03T02:15:22.650Z,100158.50
2023-03-03T02:17:54.476Z,100156.22
2023-03-03T02:20:34.798Z,100154.44
2023-03-03T02:23:12.320Z,100160.63
2023-03-03T02:25:47.933Z,100164.63
2023-03-03T02:28:17.207Z,100163.63
2023-03-03T02:30:45.186Z,100164.63
2023-03-03T02:33:12.817Z,100155.84
2023-03-03T02:35:41.864Z,100162.63
2023-03-03T02:38:19.016Z,100153.94
2023-03-03T02:40:53.002Z,100152.94
2023-03-03T02:43:26.425Z,100156.22
2023-03-03T02:45:54.128Z,100153.94
2023-03-03T02:48:21.739Z,100148.16
2023-03-03T02:50:49.444Z,100154.28
2023-03-03T02:53:17.089Z,100153.41
2023-03-03T02:55:44.865Z,100144.56
2023-03-03T02:58:12.519Z,100153.41
2023-03-03T03:00:41.591Z,100150.16
2023-03-03T03:03:09.323Z,100149.25
2023-03-03T03:05:39.437Z,100159.09
2023-03-03T03:08:07.577Z,100164.44
2023-03-03T03:10:35.500Z,100159.72
2023-03-03T03:13:03.467Z,100149.97
2023-03-03T03:15:31.307Z,100149.66
2023-03-03T03:18:00.580Z,100146.97
2023-03-03T03:20:28.721Z,100141.94
2023-03-03T03:22:56.376Z,100146.56
2023-03-03T03:25:24.322Z,100153.34
2023-03-03T03:27:52.605Z,100152.81
2023-03-03T03:30:22.443Z,100157.59
2023-03-03T03:32:50.403Z,100155.09
2023-03-03T03:35:20.304Z,100150.94
2023-03-03T03:37:48.026Z,100152.31
2023-03-03T03:40:15.952Z,100161.56
2023-03-03T03:42:43.555Z,100162.19
2023-03-03T03:45:15.230Z,100154.34
2023-03-03T03:47:45.042Z,100159.72
2023-03-03T03:50:14.805Z,100092.56
2023-03-03T03:52:44.777Z,100078.72
2023-03-03T03:55:13.658Z,100164.25
2023-03-03T03:57:41.992Z,100163.19
2023-03-03T04:00:12.360Z,100165.00
2023-03-03T04:02:50.075Z,100165.59
2023-03-03T04:05:19.538Z,100171.94
2023-03-03T04:07:48.941Z,100169.28
2023-03-03T04:10:19.175Z,100163.81
2023-03-03T04:12:47.921Z,100164.34
2023-03-03T04:15:16.337Z,100169.16
2023-03-03T04:17:44.993Z,100174.34
2023-03-03T04:20:15.367Z,100169.84
2023-03-03T04:22:45.210Z,100173.78
2023-03-03T04:25:16.956Z,100172.97
2023-03-03T04:27:46.517Z,100169.16
2023-03-03T04:30:17.288Z,100169.41
2023-03-03T04:32:49.592Z,100174.31
2023-03-03T04:35:20.794Z,100180.59
2023-03-03T04:37:48.491Z,100176.81
2023-03-03T04:40:18.884Z,100168.44
2023-03-03T04:42:48.986Z,100186.91
2023-03-03T04:45:16.803Z,100177.81
2023-03-03T04:47:46.970Z,100187.28
2023-03-03T04:50:15.127Z,100178.88
2023-03-03T04:52:43.498Z,100183.16
2023-03-03T04:55:14.075Z,100177.56
2023-03-03T04:57:43.804Z,100175.66
2023-03-03T05:00:13.400Z,100181.69
2023-03-03T05:02:41.384Z,100192.00
2023-03-03T05:05:11.157Z,100185.72
2023-03-03T05:07:38.826Z,100197.72
2023-03-03T05:10:07.797Z,100206.53
2023-03-03T05:12:35.398Z,100207.75
2023-03-03T05:15:05.058Z,100213.16
2023-03-03T05:17:32.769Z,100206.72
2023-03-03T05:20:00.354Z,100209.94
2023-03-03T05:22:28.525Z,100208.44
2023-03-03T05:24:56.130Z,100203.53
2023-03-03T05:27:23.731Z,100209.25
2023-03-03T05:29:51.581Z,100199.63
2023-03-03T05:32:20.578Z,100201.13
2023-03-03T05:34:48.294Z,100217.34
2023-03-03T05:37:16.318Z,100226.75
2023-03-03T05:39:44.630Z,100219.47
2023-03-03T05:42:13.936Z,100220.16
2023-03-03T05:44:41.855Z,100228.16
2023-03-03T05:47:09.745Z,100228.56
2023-03-03T05:49:39.110Z,100225.84
2023-03-03T05:52:06.978Z,100227.34
2023-03-03T05:54:34.703Z,100232.41
2023-03-03T05:57:03.019Z,100232.41
2023-03-03T05:59:30.763Z,100222.81
2023-03-03T06:01:58.706Z,100222.16
2023-03-03T06:04:26.650Z,100212.72
2023-03-03T06:06:55.738Z,100221.06
2023-03-03T06:09:23.584Z,100225.75
2023-03-03T06:11:52.817Z,100230.88
2023-03-03T06:14:21.023Z,100221.44
2023-03-03T06:16:48.741Z,100229.06
2023-03-03T06:19:17.733Z,100234.19
2023-03-03T06:21:45.573Z,100238.69
2023-03-03T06:24:14.525Z,100237.50
2023-03-03T06:26:42.207Z,100236.50
2023-03-03T06:29:09.882Z,100238.78
2023-03-03T06:31:37.677Z,100244.91
2023-03-03T06:34:05.354Z,100247.59
2023-03-03T06:36:32.993Z,100257.22
2023-03-03T06:39:00.980Z,100258.22
2023-03-03T06:41:30.236Z,100276.56
2023-03-03T06:43:58.276Z,100295.41
2023-03-03T06:46:25.948Z,100299.50
2023-03-03T06:48:53.652Z,100290.38
2023-03-03T06:51:26.669Z,100284.38
2023-03-03T06:53:57.343Z,100295.50
2023-03-03T06:56:25.384Z,100307.91
2023-03-03T06:58:58.297Z,100308.19
2023-03-03T07:01:26.257Z,100306.72
2023-03-03T07:03:54.302Z,100300.13
2023-03-03T07:06:25.329Z,100296.50
2023-03-03T07:08:53.939Z,100297.50
2023-03-03T07:11:23.844Z,100304.72
2023-03-03T07:13:52.968Z,100308.34
2023-03-03T07:16:26.441Z,100298.19
2023-03-03T07:18:56.195Z,100313.13
2023-03-03T07:21:26.481Z,100314.91
2023-03-03T07:23:54.841Z,100281.94
2023-03-03T07:26:26.065Z,100318.69
2023-03-03T07:28:55.998Z,100327.56
2023-03-03T07:31:31.332Z,100325.66
2023-03-03T07:34:00.705Z,100322.91
2023-03-03T07:36:31.370Z,100336.25
2023-03-03T07:39:02.023Z,100336.59
2023-03-03T07:41:30.820Z,100344.38
2023-03-03T07:44:04.918Z,100334.56
2023-03-03T07:46:42.595Z,100341.66
2023-03-03T07:49:22.737Z,100346.31
2023-03-03T07:51:54.943Z,100348.25
2023-03-03T07:54:31.106Z,100362.84
2023-03-03T07:57:03.117Z,100354.31
2023-03-03T07:59:32.131Z,100354.72
2023-03-03T08:02:01.447Z,100357.00
2023-03-03T08:04:33.425Z,100361.66
2023-03-03T08:07:03.114Z,100375.47
2023-03-03T08:09:45.012Z,100370.50
2023-03-03T08:12:35.009Z,100368.41
2023-03-03T08:15:17.856Z,100382.19
2023-03-03T08:17:48.186Z,100379.00
2023-03-03T08:20:49.596Z,100373.72
2023-03-03T08:23:19.020Z,100382.06
2023-03-03T08:25:48.298Z,100381.72
2023-03-03T08:28:16.487Z,100377.56
2023-03-03T08:30:45.488Z,100372.31
2023-03-03T08:33:15.202Z,100368.97
2023-03-03T08:35:43.498Z,100375.38
2023-03-03T08:38:12.241Z,100377.63
2023-03-03T08:40:40.029Z,100373.28
2023-03-03T08:43:07.953Z,100374.25
2023-03-03T08:45:36.696Z,100376.97
2023-03-03T08:48:06.109Z,100382.38
2023-03-03T08:50:35.609Z,100390.22
2023-03-03T08:53:03.589Z,100386.84
2023-03-03T08:55:31.652Z,100391.97
2023-03-03T08:57:59.696Z,100388.44
2023-03-03T09:00:27.468Z,100391.81
2023-03-03T09:02:56.643Z,100383.72
2023-03-03T09:05:25.510Z,100390.31
2023-03-03T09:07:55.239Z,100391.69
2023-03-03T09:10:27.532Z,100395.03
2023-03-03T09:12:58.169Z,100394.38
2023-03-03T09:15:28.548Z,100385.22
2023-03-03T09:17:59.670Z,100384.84
2023-03-03T09:20:36.485Z,100386.16
2023-03-03T09:23:30.243Z,100393.50
2023-03-03T09:25:59.093Z,100387.91
2023-03-03T09:28:28.901Z,100398.91
2023-03-03T09:31:00.207Z,100395.31
2023-03-03T09:33:33.493Z,100392.50
2023-03-03T09:36:15.978Z,100398.78
2023-03-03T09:38:46.787Z,100399.56
2023-03-03T09:41:58.978Z,100398.81
2023-03-03T09:44:45.727Z,100405.16
2023-03-03T09:47:33.060Z,100399.91
2023-03-03T09:50:08.915Z,100398.81
2023-03-03T09:52:46.191Z,100408.41
2023-03-03T09:55:30.156Z,100410.66
2023-03-03T09:58:14.573Z,100413.44
2023-03-03T10:00:55.835Z,100404.91
2023-03-03T10:03:46.543Z,100412.69
2023-03-03T10:06:23.086Z,100408.78
2023-03-03T10:09:04.146Z,100414.13
2023-03-03T10:11:41.694Z,100409.50
2023-03-03T10:14:26.918Z,100416.63
2023-03-03T10:17:18.972Z,100415.16
2023-03-03T10:19:59.199Z,100416.72
2023-03-03T10:22:42.114Z,100416.06
2023-03-03T10:25:22.318Z,100400.06
2023-03-03T10:28:05.034Z,100401.00
2023-03-03T10:30:58.480Z,100401.16
2023-03-03T10:33:39.042Z,100383.50
2023-03-03T10:36:36.062Z,100412.75
2023-03-03T10:39:39.736Z,100417.84
2023-03-03T10:42:22.994Z,100421.03
2023-03-03T10:45:05.789Z,100421.44
2023-03-03T10:47:53.804Z,100405.94
2023-03-03T10:50:28.061Z,100412.09
2023-03-03T10:53:07.041Z,100404.00
2023-03-03T10:55:43.672Z,100411.19
2023-03-03T10:58:37.062Z,100410.84
2023-03-03T11:01:19.187Z,100418.09
2023-03-03T11:04:02.784Z,100417.22
2023-03-03T11:06:39.599Z,100420.78
2023-03-03T11:09:17.293Z,100411.72
2023-03-03T11:11:53.316Z,100404.72
2023-03-03T11:14:27.864Z,100407.75
2023-03-03T11:17:02.694Z,100410.25
2023-03-03T11:19:47.260Z,100409.66
2023-03-03T11:22:26.400Z,100423.31
2023-03-03T11:25:09.482Z,100413.13
2023-03-03T11:27:56.122Z,100410.75
2023-03-03T11:30:37.244Z,100412.59
2023-03-03T11:33:10.701Z,100400.94
2023-03-03T11:35:45.988Z,100408.66
2023-03-03T11:38:26.760Z,100402.34
2023-03-03T11:40:58.196Z,100398.63
2023-03-03T11:43:36.939Z,100391.31
2023-03-03T11:46:10.643Z,100399.72
2023-03-03T11:48:47.551Z,100400.38
2023-03-03T11:51:21.150Z,100393.63
2023-03-03T11:53:58.892Z,100394.16
2023-03-03T11:56:30.878Z,100389.44
2023-03-03T11:59:20.199Z,100383.31
2023-03-03T12:01:53.941Z,100384.22
2023-03-03T12:04:30.752Z,100369.09
2023-03-03T12:07:19.830Z,100380.72
2023-03-03T12:10:00.134Z,100383.81
2023-03-03T12:12:34.167Z,100372.19
2023-03-03T12:15:10.167Z,100369.13
2023-03-03T12:17:51.607Z,100355.47
2023-03-03T12:20:31.406Z,100365.38
2023-03-03T12:23:11.520Z,100373.34
2023-03-03T12:25:43.487Z,100366.00
2023-03-03T12:28:16.723Z,100363.72
2023-03-03T12:31:04.470Z,100355.88
2023-03-03T12:33:43.682Z,100356.56
2023-03-03T12:36:20.050Z,100356.78
2023-03-03T12:38:55.230Z,100361.72
2023-03-03T12:41:28.944Z,100352.81
2023-03-03T12:44:03.819Z,100348.59
2023-03-03T12:46:41.661Z,100342.63
2023-03-03T12:49:09.302Z,100337.66
2023-03-03T12:51:48.792Z,100339.31
2023-03-03T12:54:37.483Z,100336.38
2023-03-03T12:57:16.052Z,100333.84
2023-03-03T12:59:55.782Z,100320.28
2023-03-03T13:02:42.548Z,100334.00
2023-03-03T13:05:21.236Z,100324.53
2023-03-03T13:07:57.643Z,100330.44
2023-03-03T13:10:32.313Z,100320.00
2023-03-03T13:13:05.408Z,100319.22
2023-03-03T13:15:39.720Z,100310.19
2023-03-03T13:18:35.503Z,100318.41
2023-03-03T13:21:11.285Z,100318.59
2023-03-03T13:23:48.866Z,100317.16
2023-03-03T13:26:23.628Z,100313.44
2023-03-03T13:29:03.621Z,100319.22
2023-03-03T13:31:35.983Z,100322.50
2023-03-03T13:34:04.079Z,100306.44
2023-03-03T13:36:39.944Z,100307.09
2023-03-03T13:39:18.918Z,100319.84
2023-03-03T13:41:52.683Z,100306.84
2023-03-03T13:44:26.630Z,100241.59
2023-03-03T13:47:06.604Z,100300.78
2023-03-03T13:49:48.838Z,100301.00
2023-03-03T13:52:22.193Z,100303.31
2023-03-03T13:55:13.891Z,100293.63
2023-03-03T13:57:55.631Z,100295.69
2023-03-03T14:00:33.334Z,100293.63
2023-03-03T14:03:23.698Z,100266.72
2023-03-03T14:05:52.580Z,100278.31
2023-03-03T14:08:32.555Z,100284.94
2023-03-03T14:11:11.117Z,100282.34
2023-03-03T14:13:45.621Z,100280.91
2023-03-03T14:16:20.577Z,100274.66
2023-03-03T14:18:57.905Z,100260.25
2023-03-03T14:21:30.746Z,100263.25
2023-03-03T14:24:08.437Z,100260.44
2023-03-03T14:26:49.483Z,100248.47
2023-03-03T14:29:22.792Z,100250.19
2023-03-03T14:31:50.712Z,100264.56
2023-03-03T14:34:36.088Z,100267.06
2023-03-03T14:37:22.940Z,100256.97
2023-03-03T14:40:02.021Z,100250.00
2023-03-03T14:42:38.038Z,100245.75
2023-03-03T14:45:29.345Z,100250.13
2023-03-03T14:48:11.901Z,100252.16
2023-03-03T14:50:41.518Z,100248.75
2023-03-03T14:53:23.759Z,100247.00
2023-03-03T14:55:53.619Z,100255.47
2023-03-03T14:58:29.540Z,100232.53
2023-03-03T15:01:15.476Z,100251.41
2023-03-03T15:03:49.133Z,100254.63
2023-03-03T15:06:31.239Z,100249.25
2023-03-03T15:09:24.810Z,100239.78
2023-03-03T15:11:53.832Z,100237.78
2023-03-03T15:14:31.154Z,100251.84
2023-03-03T15:17:14.762Z,100200.38
2023-03-03T15:19:48.785Z,100253.94
2023-03-03T15:22:28.192Z,100255.91
2023-03-03T15:25:02.060Z,100248.13
2023-03-03T15:27:35.650Z,100243.94
2023-03-03T15:30:16.089Z,100249.19
2023-03-03T15:32:50.175Z,100255.28
2023-03-03T15:35:32.089Z,100260.94
2023-03-03T15:38:04.854Z,100249.34
2023-03-03T15:40:40.913Z,100256.41
2023-03-03T15:43:21.111Z,100258.38
2023-03-03T15:45:59.602Z,100257.03
2023-03-03T15:48:47.333Z,100253.66
2023-03-03T15:51:24.772Z,100261.91
2023-03-03T15:54:14.775Z,100259.75
2023-03-03T15:56:50.749Z,100243.25
2023-03-03T15:59:43.548Z,100261.56
2023-03-03T16:02:18.089Z,100261.31
2023-03-03T16:04:55.021Z,100258.56
2023-03-03T16:07:37.172Z,100262.16
2023-03-03T16:10:16.407Z,100269.13
2023-03-03T16:12:53.006Z,100268.50
2023-03-03T16:15:31.512Z,100267.63
2023-03-03T16:18:09.629Z,100265.28
2023-03-03T16:20:43.389Z,100270.50
2023-03-03T16:23:21.636Z,100275.47
2023-03-03T16:25:59.274Z,100281.75
2023-03-03T16:28:36.507Z,100271.59
2023-03-03T16:31:10.547Z,100269.34
2023-03-03T16:33:50.467Z,100280.53
2023-03-03T16:36:28.759Z,100283.19
2023-03-03T16:39:04.157Z,100281.19
2023-03-03T16:41:43.956Z,100290.66
2023-03-03T16:44:25.062Z,100301.06
2023-03-03T16:46:52.742Z,100301.78
2023-03-03T16:49:28.299Z,100303.81
2023-03-03T16:52:03.981Z,100320.72
2023-03-03T16:54:40.247Z,100321.22
2023-03-03T16:57:17.544Z,100320.50
2023-03-03T17:00:03.009Z,100315.34
2023-03-03T17:02:56.608Z,100302.47
2023-03-03T17:05:37.896Z,100332.50
2023-03-03T17:08:24.233Z,100338.16
2023-03-03T17:10:57.407Z,100337.53
2023-03-03T17:13:48.796Z,100340.09
2023-03-03T17:16:23.430Z,100343.84
2023-03-03T17:19:01.886Z,100345.06
2023-03-03T17:21:40.199Z,100352.91
2023-03-03T17:24:20.804Z,100363.91
2023-03-03T17:26:58.866Z,100360.75
2023-03-03T17:29:40.285Z,100361.16
2023-03-03T17:32:22.659Z,100367.28
2023-03-03T17:35:05.677Z,100368.56
2023-03-03T17:37:44.716Z,100372.84
2023-03-03T17:40:42.450Z,100377.44
2023-03-03T17:43:16.435Z,100373.22
2023-03-03T17:45:47.479Z,100379.72
2023-03-03T17:48:39.252Z,100384.25
2023-03-03T17:51:18.921Z,100388.13
2023-03-03T17:54:04.032Z,100394.56
2023-03-03T17:56:37.894Z,100391.03
2023-03-03T17:59:19.786Z,100389.13
2023-03-03T18:02:16.381Z,100398.91
2023-03-03T18:05:07.010Z,100401.63
2023-03-03T18:07:46.972Z,100398.25
2023-03-03T18:10:49.975Z,100404.00
2023-03-03T18:13:34.338Z,100400.31
2023-03-03T18:16:17.563Z,100411.78
2023-03-03T18:19:00.849Z,100407.28
2023-03-03T18:21:35.179Z,100425.31
2023-03-03T18:24:28.529Z,100417.75
2023-03-03T18:27:13.345Z,100425.56
2023-03-03T18:29:41.011Z,100428.09
2023-03-03T18:32:22.844Z,100397.56
2023-03-03T18:35:25.526Z,100422.72
2023-03-03T18:37:53.837Z,100420.66
2023-03-03T18:40:33.352Z,100422.19
2023-03-03T18:43:41.733Z,100422.84
2023-03-03T18:46:13.377Z,100425.06
2023-03-03T18:48:50.319Z,100420.47
2023-03-03T18:51:52.216Z,100431.22
2023-03-03T18:54:33.287Z,100437.66
2023-03-03T18:57:18.310Z,100440.41
2023-03-03T19:00:02.008Z,100440.84
2023-03-03T19:02:38.888Z,100410.47
2023-03-03T19:05:19.422Z,100443.69
2023-03-03T19:07:52.202Z,100448.06
2023-03-03T19:10:49.498Z,100452.75
2023-03-03T19:13:48.037Z,100445.88
2023-03-03T19:16:37.744Z,100445.28
2023-03-03T19:19:13.568Z,100443.03
2023-03-03T19:21:42.734Z,100450.06
2023-03-03T19:24:29.087Z,100449.78
2023-03-03T19:27:13.709Z,100447.53
2023-03-03T19:30:22.514Z,100450.75
2023-03-03T19:33:12.508Z,100469.38
2023-03-03T19:35:50.361Z,100465.63
2023-03-03T19:38:32.745Z,100463.84
2023-03-03T19:41:12.090Z,100470.53
2023-03-03T19:43:48.287Z,100467.56
2023-03-03T19:46:33.369Z,100464.09
2023-03-03T19:49:11.599Z,100463.09
2023-03-03T19:51:48.276Z,100471.00
2023-03-03T19:54:26.832Z,100470.00
2023-03-03T19:56:56.451Z,100473.31
2023-03-03T19:59:32.313Z,100477.16
2023-03-03T20:02:28.501Z,100475.66
2023-03-03T20:05:13.760Z,100475.59
2023-03-03T20:07:48.957Z,100478.28
2023-03-03T20:10:34.842Z,100474.38
2023-03-03T20:13:13.296Z,100478.38
2023-03-03T20:15:51.351Z,100482.38
2023-03-03T20:18:38.909Z,100483.94
2023-03-03T20:21:17.167Z,100487.66
2023-03-03T20:23:57.916Z,100492.28
2023-03-03T20:26:32.585Z,100491.25
2023-03-03T20:29:31.657Z,100496.69
2023-03-03T20:32:11.135Z,100478.53
2023-03-03T20:34:49.169Z,100505.81
2023-03-03T20:37:26.342Z,100499.91
2023-03-03T20:40:05.443Z,100505.94
2023-03-03T20:42:44.522Z,100507.53
2023-03-03T20:45:29.460Z,100516.66
2023-03-03T20:48:12.169Z,100508.53
2023-03-03T20:50:52.242Z,100511.84
2023-03-03T20:53:28.529Z,100511.03
2023-03-03T20:56:04.518Z,100507.13
2023-03-03T20:58:43.763Z,100514.53
2023-03-03T21:01:15.519Z,100511.94
2023-03-03T21:03:45.169Z,100517.94
2023-03-03T21:06:16.113Z,100514.34
2023-03-03T21:08:49.436Z,100511.53
2023-03-03T21:11:18.875Z,100498.88
2023-03-03T21:13:49.411Z,100504.88
2023-03-03T21:16:31.257Z,100513.31
2023-03-03T21:19:00.435Z,100513.50
2023-03-03T21:21:30.309Z,100508.06
2023-03-03T21:24:00.012Z,100502.22
2023-03-03T21:26:48.622Z,100511.97
2023-03-03T21:29:25.493Z,100519.66
2023-03-03T21:31:55.907Z,100515.06
2023-03-03T21:34:29.493Z,100470.44
2023-03-03T21:36:57.685Z,100521.66
2023-03-03T21:39:29.441Z,100522.03
2023-03-03T21:41:59.838Z,100528.63
2023-03-03T21:44:32.692Z,100514.28
2023-03-03T21:47:00.537Z,100521.38
2023-03-03T21:49:28.728Z,100524.69
2023-03-03T21:51:57.264Z,100527.31
2023-03-03T21:54:25.110Z,100517.69
2023-03-03T21:56:55.103Z,100521.19
2023-03-03T21:59:22.844Z,100521.09
2023-03-03T22:01:50.473Z,100515.56
2023-03-03T22:04:18.138Z,100526.31
2023-03-03T22:06:46.100Z,100529.50
2023-03-03T22:09:13.994Z,100522.00
2023-03-03T22:11:41.880Z,100524.97
2023-03-03T22:14:11.157Z,100531.78
2023-03-03T22:16:38.826Z,100524.78
2023-03-03T22:19:09.096Z,100528.69
2023-03-03T22:21:37.753Z,100528.28
2023-03-03T22:24:06.526Z,100529.94
2023-03-03T22:26:35.312Z,100529.19
2023-03-03T22:29:03.044Z,100529.50
2023-03-03T22:31:32.215Z,100537.91
2023-03-03T22:34:00.117Z,100535.72
2023-03-03T22:36:27.777Z,100540.66
2023-03-03T22:38:55.515Z,100539.31
2023-03-03T22:41:23.275Z,100545.28
2023-03-03T22:43:50.903Z,100540.66
2023-03-03T22:46:18.582Z,100539.44
2023-03-03T22:48:47.960Z,100555.41
2023-03-03T22:51:15.636Z,100552.59
2023-03-03T22:53:43.349Z,100554.72
2023-03-03T22:56:10.950Z,100547.69
2023-03-03T22:58:38.680Z,100548.72
2023-03-03T23:01:06.305Z,100546.91
2023-03-03T23:03:34.038Z,100543.84
2023-03-03T23:06:03.067Z,100547.94
2023-03-03T23:08:30.726Z,100555.81
2023-03-03T23:10:58.307Z,100552.91
2023-03-03T23:13:27.042Z,100549.66
2023-03-03T23:15:58.332Z,100553.72
2023-03-03T23:18:26.013Z,100563.56
2023-03-03T23:20:53.626Z,100561.09
2023-03-03T23:23:23.093Z,100568.72
2023-03-03T23:25:50.718Z,100564.16
2023-03-03T23:28:19.178Z,100569.78
2023-03-03T23:30:46.886Z,100561.16
2023-03-03T23:33:14.800Z,100566.53
2023-03-03T23:35:42.537Z,100558.22
2023-03-03T23:38:15.175Z,100556.88
2023-03-03T23:40:46.550Z,100562.63
2023-03-03T23:43:14.211Z,100561.06
2023-03-03T23:45:41.854Z,100560.00
2023-03-03T23:48:09.585Z,100565.84
2023-03-03T23:50:37.967Z,100574.53
2023-03-03T23:53:06.932Z,100570.22
2023-03-03T23:55:34.741Z,100566.47
2023-03-03T23:58:03.870Z,100573.31
